createdAt,value
2022-10-29T00:00:20.771Z,95781.34
2022-10-29T00:02:22.460Z,95778.63
2022-10-29T00:04:24.283Z,95782.91
2022-10-29T00:06:26.055Z,95775.03
2022-10-29T00:08:29.157Z,95776.97
2022-10-29T00:10:30.900Z,95771.97
2022-10-29T00:12:33.883Z,95771.69
2022-10-29T00:14:35.615Z,95771.41
2022-10-29T00:16:39.579Z,95768.78
2022-10-29T00:18:41.317Z,95766.28
2022-10-29T00:20:43.205Z,95765.19
2022-10-29T00:22:44.772Z,95765.59
2022-10-29T00:24:46.346Z,95765.91
2022-10-29T00:26:47.950Z,95759.81
2022-10-29T00:28:52.790Z,95762.88
2022-10-29T00:30:54.679Z,95757.47
2022-10-29T00:32:56.504Z,95760.66
2022-10-29T00:34:58.382Z,95761.75
2022-10-29T00:36:59.987Z,95756.50
2022-10-29T00:39:01.593Z,95753.75
2022-10-29T00:41:04.747Z,95749.88
2022-10-29T00:43:16.714Z,95755.56
2022-10-29T00:45:20.549Z,95751.00
2022-10-29T00:47:29.623Z,95751.84
2022-10-29T00:49:32.254Z,95754.28
2022-10-29T00:51:34.532Z,95754.38
2022-10-29T00:53:38.659Z,95753.69
2022-10-29T00:55:40.763Z,95756.47
2022-10-29T00:57:48.465Z,95757.03
2022-10-29T00:59:50.461Z,95751.41
2022-10-29T01:01:52.319Z,95747.69
2022-10-29T01:03:55.468Z,95747.97
2022-10-29T01:05:57.212Z,95751.56
2022-10-29T01:07:58.825Z,95746.31
2022-10-29T01:10:00.405Z,95743.81
2022-10-29T01:12:14.315Z,95743.53
2022-10-29T01:14:31.037Z,95739.13
2022-10-29T01:16:51.256Z,95727.78
2022-10-29T01:18:56.982Z,95727.94
2022-10-29T01:21:17.302Z,95723.38
2022-10-29T01:23:40.181Z,95730.28
2022-10-29T01:25:48.056Z,95724.50
2022-10-29T01:28:02.104Z,95718.97
2022-10-29T01:30:16.803Z,95716.91
2022-10-29T01:32:30.006Z,95717.59
2022-10-29T01:34:36.540Z,95722.13
2022-10-29T01:36:46.600Z,95722.59
2022-10-29T01:39:03.023Z,95726.13
2022-10-29T01:41:28.648Z,95724.13
2022-10-29T01:44:18.311Z,95731.91
2022-10-29T01:46:58.597Z,95729.09
2022-10-29T01:49:03.195Z,95721.63
2022-10-29T01:51:09.685Z,95726.69
2022-10-29T01:53:11.410Z,95721.59
2022-10-29T01:55:19.682Z,95711.25
2022-10-29T01:57:35.996Z,95707.16
2022-10-29T01:59:51.529Z,95713.59
2022-10-29T02:02:07.623Z,95711.69
2022-10-29T02:04:50.242Z,95718.88
2022-10-29T02:07:12.033Z,95714.72
2022-10-29T02:09:36.640Z,95709.53
2022-10-29T02:11:47.059Z,95706.59
2022-10-29T02:14:00.867Z,95712.41
2022-10-29T02:16:05.481Z,95706.97
2022-10-29T02:18:08.149Z,95703.41
2022-10-29T02:20:12.026Z,95700.97
2022-10-29T02:22:13.538Z,95700.16
2022-10-29T02:24:15.169Z,95696.31
2022-10-29T02:26:17.153Z,95700.41
2022-10-29T02:30:25.364Z,95707.94
2022-10-29T02:32:27.108Z,95706.91
2022-10-29T02:34:28.699Z,95705.91
2022-10-29T02:36:30.328Z,95700.09
2022-10-29T02:38:31.914Z,95699.88
2022-10-29T02:40:33.464Z,95697.94
2022-10-29T02:42:35.206Z,95700.38
2022-10-29T02:44:36.818Z,95698.47
2022-10-29T02:46:39.961Z,95690.44
2022-10-29T02:48:41.986Z,95699.00
2022-10-29T02:50:43.604Z,95703.19
2022-10-29T02:52:45.278Z,95703.22
2022-10-29T02:54:46.880Z,95697.34
2022-10-29T02:56:48.526Z,95698.44
2022-10-29T02:58:50.202Z,95698.97
2022-10-29T03:00:52.384Z,95691.81
2022-10-29T03:02:54.240Z,95689.06
2022-10-29T03:04:56.224Z,95692.72
2022-10-29T03:06:57.922Z,95700.84
2022-10-29T03:08:59.607Z,95713.94
2022-10-29T03:11:01.229Z,95699.34
2022-10-29T03:13:03.155Z,95698.69
2022-10-29T03:15:05.143Z,95700.63
2022-10-29T03:17:06.752Z,95702.97
2022-10-29T03:19:08.476Z,95704.22
2022-10-29T03:21:10.099Z,95695.22
2022-10-29T03:23:11.655Z,95694.59
2022-10-29T03:25:13.550Z,95687.16
2022-10-29T03:27:15.139Z,95692.47
2022-10-29T03:29:18.102Z,95686.25
2022-10-29T03:31:19.853Z,95691.78
2022-10-29T03:33:21.450Z,95687.81
2022-10-29T03:35:23.117Z,95692.03
2022-10-29T03:37:24.904Z,95688.38
2022-10-29T03:39:26.485Z,95684.25
2022-10-29T03:41:28.138Z,95675.91
2022-10-29T03:43:29.897Z,95680.34
2022-10-29T03:45:31.519Z,95681.38
2022-10-29T03:47:33.888Z,95674.56
2022-10-29T03:49:35.714Z,95677.63
2022-10-29T03:51:37.375Z,95672.94
2022-10-29T03:53:38.965Z,95679.28
2022-10-29T03:55:40.585Z,95679.72
2022-10-29T03:57:42.157Z,95687.47
2022-10-29T03:59:45.959Z,95674.56
2022-10-29T04:01:50.137Z,95682.78
2022-10-29T04:03:51.891Z,95693.22
2022-10-29T04:05:53.543Z,95688.38
2022-10-29T04:07:55.197Z,95691.31
2022-10-29T04:09:56.842Z,95688.47
2022-10-29T04:11:58.490Z,95684.31
2022-10-29T04:14:00.113Z,95685.66
2022-10-29T04:16:01.833Z,95686.31
2022-10-29T04:18:03.499Z,95685.06
2022-10-29T04:20:10.077Z,95685.72
2022-10-29T04:28:36.766Z,95690.13
2022-10-29T04:29:27.705Z,95690.56
2022-10-29T04:31:29.290Z,95690.88
2022-10-29T04:33:30.863Z,95698.34
2022-10-29T04:35:32.539Z,95694.38
2022-10-29T04:37:34.112Z,95692.59
2022-10-29T04:39:35.687Z,95698.41
2022-10-29T04:41:37.378Z,95695.38
2022-10-29T04:43:39.038Z,95699.41
2022-10-29T04:45:40.697Z,95697.59
2022-10-29T04:47:42.381Z,95698.31
2022-10-29T04:49:43.940Z,95705.09
2022-10-29T04:51:45.607Z,95701.63
2022-10-29T04:53:47.293Z,95702.28
2022-10-29T04:55:49.130Z,95705.94
2022-10-29T04:57:50.944Z,95706.91
2022-10-29T04:59:52.572Z,95697.00
2022-10-29T05:01:54.215Z,95699.38
2022-10-29T05:03:59.007Z,95699.81
2022-10-29T05:06:06.966Z,95693.53
2022-10-29T05:08:10.243Z,95693.56
2022-10-29T05:10:12.005Z,95694.97
2022-10-29T05:12:13.632Z,95696.34
2022-10-29T05:14:15.247Z,95694.22
2022-10-29T05:16:16.897Z,95699.78
2022-10-29T05:18:18.508Z,95697.66
2022-10-29T05:20:20.140Z,95703.72
2022-10-29T05:22:21.723Z,95699.44
2022-10-29T05:24:23.436Z,95697.28
2022-10-29T05:26:25.064Z,95693.13
2022-10-29T05:28:26.636Z,95692.31
2022-10-29T05:30:28.293Z,95700.19
2022-10-29T05:32:29.978Z,95696.25
2022-10-29T05:34:34.632Z,95703.97
2022-10-29T05:36:36.309Z,95713.28
2022-10-29T05:38:37.936Z,95710.94
2022-10-29T05:40:39.843Z,95709.44
2022-10-29T05:42:47.143Z,95712.75
2022-10-29T05:44:48.966Z,95712.06
2022-10-29T05:46:50.599Z,95712.81
2022-10-29T05:48:52.975Z,95718.47
2022-10-29T05:50:54.569Z,95721.53
2022-10-29T05:53:04.128Z,95717.53
2022-10-29T05:55:06.976Z,95724.59
2022-10-29T05:57:08.601Z,95721.28
2022-10-29T05:59:10.199Z,95716.31
2022-10-29T06:01:12.042Z,95714.09
2022-10-29T06:03:23.049Z,95723.94
2022-10-29T06:05:24.831Z,95718.41
2022-10-29T06:07:26.491Z,95719.91
2022-10-29T06:09:28.081Z,95729.16
2022-10-29T06:11:29.630Z,95728.19
2022-10-29T06:13:31.399Z,95727.94
2022-10-29T06:15:33.002Z,95734.69
2022-10-29T06:17:34.675Z,95730.84
2022-10-29T06:19:36.386Z,95732.22
2022-10-29T06:21:41.007Z,95725.59
2022-10-29T06:23:42.654Z,95731.66
2022-10-29T06:25:44.296Z,95735.81
2022-10-29T06:27:45.844Z,95738.00
2022-10-29T06:29:47.404Z,95733.72
2022-10-29T06:31:48.975Z,95730.31
2022-10-29T06:33:50.638Z,95734.84
2022-10-29T06:35:52.238Z,95720.59
2022-10-29T06:37:54.390Z,95728.34
2022-10-29T06:39:56.665Z,95725.31
2022-10-29T06:41:58.322Z,95723.06
2022-10-29T06:44:00.072Z,95722.22
2022-10-29T06:46:01.968Z,95727.34
2022-10-29T06:48:05.534Z,95728.47
2022-10-29T06:50:07.545Z,95721.44
2022-10-29T06:52:09.338Z,95734.69
2022-10-29T06:54:11.062Z,95726.09
2022-10-29T06:56:12.710Z,95729.28
2022-10-29T06:58:15.954Z,95734.81
2022-10-29T07:00:17.684Z,95722.94
2022-10-29T07:02:19.650Z,95722.94
2022-10-29T07:04:21.309Z,95731.94
2022-10-29T07:06:22.919Z,95730.78
2022-10-29T07:08:25.134Z,95734.94
2022-10-29T07:10:28.993Z,95734.69
2022-10-29T07:12:30.474Z,95734.63
2022-10-29T07:14:32.256Z,95741.91
2022-10-29T07:16:34.234Z,95746.13
2022-10-29T07:18:36.194Z,95741.50
2022-10-29T07:20:40.543Z,95739.91
2022-10-29T07:22:47.340Z,95743.78
2022-10-29T07:24:48.924Z,95747.28
2022-10-29T07:26:50.553Z,95744.91
2022-10-29T07:28:57.072Z,95744.88
2022-10-29T07:31:00.355Z,95750.38
2022-10-29T07:33:02.272Z,95739.56
2022-10-29T07:35:04.368Z,95741.19
2022-10-29T07:37:05.934Z,95744.06
2022-10-29T07:39:07.562Z,95742.19
2022-10-29T07:41:09.237Z,95742.31
2022-10-29T07:43:10.885Z,95741.97
2022-10-29T07:45:12.518Z,95732.22
2022-10-29T07:47:14.344Z,95731.69
2022-10-29T07:49:15.908Z,95728.78
2022-10-29T07:51:17.544Z,95727.59
2022-10-29T07:53:19.341Z,95734.16
2022-10-29T07:55:21.016Z,95741.59
2022-10-29T07:57:22.662Z,95739.22
2022-10-29T07:59:24.508Z,95733.97
2022-10-29T08:01:26.132Z,95736.22
2022-10-29T08:03:27.907Z,95731.81
2022-10-29T08:05:30.281Z,95731.59
2022-10-29T08:07:31.938Z,95731.19
2022-10-29T08:09:33.544Z,95716.69
2022-10-29T08:11:35.167Z,95719.09
2022-10-29T08:13:37.027Z,95718.03
2022-10-29T08:15:38.648Z,95719.66
2022-10-29T08:17:40.227Z,95715.69
2022-10-29T08:19:42.096Z,95712.06
2022-10-29T08:21:43.688Z,95710.09
2022-10-29T08:23:46.023Z,95707.09
2022-10-29T08:25:47.644Z,95712.06
2022-10-29T08:28:03.443Z,95709.81
2022-10-29T08:30:06.551Z,95707.56
2022-10-29T08:32:08.226Z,95706.44
2022-10-29T08:34:11.305Z,95712.38
2022-10-29T08:36:13.132Z,95707.59
2022-10-29T08:38:14.758Z,95706.59
2022-10-29T08:40:29.780Z,95709.88
2022-10-29T08:42:56.583Z,95707.47
2022-10-29T08:45:25.973Z,95697.81
2022-10-29T08:47:27.823Z,95698.16
2022-10-29T08:49:37.339Z,95694.00
2022-10-29T08:51:41.548Z,95689.41
2022-10-29T08:53:54.231Z,95689.94
2022-10-29T08:56:29.590Z,95685.31
2022-10-29T08:58:36.295Z,95678.06
2022-10-29T09:00:57.456Z,95685.31
2022-10-29T09:03:00.051Z,95689.44
2022-10-29T09:05:01.874Z,95683.84
2022-10-29T09:07:24.268Z,95683.84
2022-10-29T09:09:37.529Z,95688.94
2022-10-29T09:11:51.213Z,95683.28
2022-10-29T09:14:07.799Z,95683.22
2022-10-29T09:16:27.719Z,95679.50
2022-10-29T09:19:06.987Z,95671.78
2022-10-29T09:21:18.818Z,95677.22
2022-10-29T09:23:29.530Z,95670.16
2022-10-29T09:25:35.025Z,95675.06
2022-10-29T09:27:48.393Z,95662.63
2022-10-29T09:29:53.278Z,95666.69
2022-10-29T09:32:07.713Z,95662.41
2022-10-29T09:34:13.536Z,95662.16
2022-10-29T09:36:18.114Z,95662.09
2022-10-29T09:38:24.484Z,95662.94
2022-10-29T09:40:29.103Z,95654.50
2022-10-29T09:42:38.836Z,95657.19
2022-10-29T09:44:43.283Z,95653.75
2022-10-29T09:47:09.387Z,95648.03
2022-10-29T09:49:28.479Z,95645.16
2022-10-29T09:51:48.908Z,95644.50
2022-10-29T09:53:51.466Z,95632.16
2022-10-29T09:55:54.301Z,95634.72
2022-10-29T09:57:57.588Z,95632.03
2022-10-29T10:00:08.212Z,95636.16
2022-10-29T10:02:38.870Z,95630.06
2022-10-29T10:04:44.792Z,95624.75
2022-10-29T10:07:09.554Z,95616.31
2022-10-29T10:09:11.115Z,95614.97
2022-10-29T10:11:19.240Z,95614.63
2022-10-29T10:13:27.021Z,95608.38
2022-10-29T10:15:33.198Z,95599.38
2022-10-29T10:17:53.990Z,95599.25
2022-10-29T10:19:55.844Z,95592.00
2022-10-29T10:21:59.675Z,95593.38
2022-10-29T10:24:01.339Z,95585.41
2022-10-29T10:26:05.367Z,95577.38
2022-10-29T10:28:25.202Z,95576.91
2022-10-29T10:30:27.040Z,95578.00
2022-10-29T10:32:28.676Z,95573.19
2022-10-29T10:34:32.964Z,95567.94
2022-10-29T10:36:39.507Z,95564.91
2022-10-29T10:38:50.338Z,95562.91
2022-10-29T10:41:03.260Z,95551.66
2022-10-29T10:43:08.192Z,95552.22
2022-10-29T10:45:23.424Z,95559.31
2022-10-29T10:47:28.449Z,95549.28
2022-10-29T10:49:37.977Z,95549.69
2022-10-29T10:51:49.443Z,95540.13
2022-10-29T10:53:51.399Z,95538.50
2022-10-29T10:55:58.072Z,95540.50
2022-10-29T10:58:22.239Z,95535.88
2022-10-29T11:00:24.983Z,95530.34
2022-10-29T11:02:44.986Z,95534.28
2022-10-29T11:04:53.568Z,95529.00
2022-10-29T11:06:58.768Z,95524.72
2022-10-29T11:09:06.324Z,95523.75
2022-10-29T11:11:13.027Z,95521.97
2022-10-29T11:13:16.799Z,95513.00
2022-10-29T11:15:27.473Z,95507.75
2022-10-29T11:17:54.500Z,95510.78
2022-10-29T11:19:59.664Z,95503.69
2022-10-29T11:22:20.744Z,95503.09
2022-10-29T11:24:35.305Z,95494.94
2022-10-29T11:26:45.496Z,95486.38
2022-10-29T11:28:48.786Z,95483.47
2022-10-29T11:31:09.229Z,95476.78
2022-10-29T11:33:35.138Z,95483.94
2022-10-29T11:35:51.662Z,95474.34
2022-10-29T11:38:01.202Z,95481.22
2022-10-29T11:40:04.009Z,95478.50
2022-10-29T11:42:07.334Z,95470.84
2022-10-29T11:44:13.786Z,95464.03
2022-10-29T11:46:27.610Z,95473.59
2022-10-29T11:48:41.722Z,95462.38
2022-10-29T11:51:07.429Z,95460.69
2022-10-29T11:53:29.821Z,95463.06
2022-10-29T11:55:53.997Z,95466.16
2022-10-29T12:00:20.869Z,95451.78
2022-10-29T12:02:28.555Z,95451.88
2022-10-29T12:04:44.158Z,95449.06
2022-10-29T12:07:10.384Z,95446.28
2022-10-29T12:09:47.562Z,95440.88
2022-10-29T12:12:17.353Z,95434.63
2022-10-29T12:14:21.699Z,95436.34
2022-10-29T12:16:28.666Z,95430.81
2022-10-29T12:18:46.708Z,95427.56
2022-10-29T12:21:01.468Z,95421.84
2022-10-29T12:23:25.377Z,95415.94
2022-10-29T12:25:55.773Z,95420.25
2022-10-29T12:28:19.187Z,95411.84
2022-10-29T12:30:22.756Z,95414.13
2022-10-29T12:32:44.430Z,95406.94
2022-10-29T12:34:49.468Z,95407.56
2022-10-29T12:37:07.627Z,95411.03
2022-10-29T12:39:21.855Z,95398.75
2022-10-29T12:41:35.581Z,95400.38
2022-10-29T12:43:39.135Z,95398.94
2022-10-29T12:46:21.552Z,95402.63
2022-10-29T12:48:23.271Z,95396.28
2022-10-29T12:51:00.845Z,95393.63
2022-10-29T12:53:24.640Z,95403.03
2022-10-29T12:55:26.310Z,95395.06
2022-10-29T12:57:35.189Z,95387.28
2022-10-29T12:59:37.182Z,95390.56
2022-10-29T13:01:57.795Z,95386.88
2022-10-29T13:04:04.390Z,95378.28
2022-10-29T13:06:43.122Z,95384.00
2022-10-29T13:08:55.575Z,95375.59
2022-10-29T13:10:58.875Z,95377.47
2022-10-29T13:13:18.566Z,95376.63
2022-10-29T13:15:21.509Z,95376.84
2022-10-29T13:17:23.041Z,95374.19
2022-10-29T13:19:35.201Z,95370.09
2022-10-29T13:22:01.001Z,95366.59
2022-10-29T13:24:05.876Z,95360.25
2022-10-29T13:26:10.752Z,95360.03
2022-10-29T13:28:15.041Z,95356.56
2022-10-29T13:30:25.380Z,95358.84
2022-10-29T13:32:37.846Z,95354.50
2022-10-29T13:35:01.917Z,95347.16
2022-10-29T13:37:42.576Z,95356.56
2022-10-29T13:39:44.184Z,95348.97
2022-10-29T13:41:50.870Z,95355.72
2022-10-29T13:44:05.823Z,95351.22
2022-10-29T13:46:30.459Z,95347.13
2022-10-29T13:48:35.203Z,95349.78
2022-10-29T13:50:37.769Z,95347.75
2022-10-29T13:52:40.883Z,95355.72
2022-10-29T13:54:54.257Z,95345.50
2022-10-29T13:57:01.455Z,95341.19
2022-10-29T13:59:05.288Z,95345.28
2022-10-29T14:01:15.732Z,95339.13
2022-10-29T14:03:22.772Z,95340.56
2022-10-29T14:05:31.765Z,95339.34
2022-10-29T14:08:30.039Z,95338.75
2022-10-29T14:10:36.908Z,95332.19
2022-10-29T14:12:40.016Z,95335.06
2022-10-29T14:15:06.720Z,95335.66
2022-10-29T14:17:16.677Z,95333.41
2022-10-29T14:19:21.119Z,95328.91
2022-10-29T14:21:24.104Z,95337.69
2022-10-29T14:23:25.974Z,95333.78
2022-10-29T14:25:33.706Z,95326.41
2022-10-29T14:27:35.303Z,95335.84
2022-10-29T14:29:36.983Z,95330.94
2022-10-29T14:31:38.548Z,95328.47
2022-10-29T14:33:44.642Z,95332.19
2022-10-29T14:35:46.723Z,95331.38
2022-10-29T14:37:48.758Z,95329.09
2022-10-29T14:39:58.335Z,95329.09
2022-10-29T14:42:01.312Z,95335.66
2022-10-29T14:44:17.930Z,95333.63
2022-10-29T14:46:23.678Z,95337.72
2022-10-29T14:48:25.398Z,95340.59
2022-10-29T14:50:28.877Z,95333.84
2022-10-29T14:52:30.914Z,95338.75
2022-10-29T14:54:35.972Z,95337.50
2022-10-29T14:56:40.527Z,95333.63
2022-10-29T14:58:42.152Z,95331.78
2022-10-29T15:00:59.839Z,95334.44
2022-10-29T15:03:02.164Z,95336.06
2022-10-29T15:05:07.762Z,95330.75
2022-10-29T15:07:28.797Z,95334.38
2022-10-29T15:09:30.476Z,95334.38
2022-10-29T15:11:34.921Z,95338.44
2022-10-29T15:13:36.850Z,95331.22
2022-10-29T15:15:38.555Z,95334.44
2022-10-29T15:17:49.627Z,95333.38
2022-10-29T15:19:57.721Z,95340.88
2022-10-29T15:21:59.265Z,95344.72
2022-10-29T15:24:09.369Z,95339.75
2022-10-29T15:26:20.706Z,95348.09
2022-10-29T15:28:28.238Z,95347.44
2022-10-29T15:30:35.467Z,95345.13
2022-10-29T15:32:37.092Z,95353.19
2022-10-29T15:34:38.732Z,95340.91
2022-10-29T15:36:50.839Z,95349.81
2022-10-29T15:39:08.973Z,95353.63
2022-10-29T15:41:19.638Z,95353.59
2022-10-29T15:43:31.569Z,95351.25
2022-10-29T15:45:33.394Z,95352.63
2022-10-29T15:47:36.888Z,95351.59
2022-10-29T15:49:38.475Z,95347.84
2022-10-29T15:51:40.060Z,95352.09
2022-10-29T15:53:41.809Z,95353.69
2022-10-29T15:55:43.835Z,95351.78
2022-10-29T15:57:45.643Z,95357.66
2022-10-29T15:59:47.308Z,95357.41
2022-10-29T16:01:48.965Z,95364.25
2022-10-29T16:03:50.609Z,95359.50
2022-10-29T16:05:55.498Z,95360.88
2022-10-29T16:08:02.396Z,95367.09
2022-10-29T16:10:04.202Z,95369.50
2022-10-29T16:12:06.140Z,95371.06
2022-10-29T16:14:09.700Z,95374.66
2022-10-29T16:16:17.452Z,95381.31
2022-10-29T16:18:19.124Z,95368.44
2022-10-29T16:20:20.976Z,95373.09
2022-10-29T16:22:29.744Z,95378.94
2022-10-29T16:24:31.385Z,95377.50
2022-10-29T16:26:33.002Z,95386.81
2022-10-29T16:28:34.585Z,95388.19
2022-10-29T16:30:37.583Z,95392.09
2022-10-29T16:32:39.756Z,95391.56
2022-10-29T16:34:41.486Z,95397.22
2022-10-29T16:36:43.106Z,95400.22
2022-10-29T16:38:44.769Z,95398.97
2022-10-29T16:40:46.407Z,95402.38
2022-10-29T16:42:48.561Z,95408.44
2022-10-29T16:44:50.219Z,95397.81
2022-10-29T16:46:51.901Z,95404.09
2022-10-29T16:48:53.453Z,95408.88
2022-10-29T16:50:55.007Z,95405.31
2022-10-29T16:53:12.382Z,95402.16
2022-10-29T16:55:14.733Z,95400.31
2022-10-29T16:57:16.324Z,95400.97
2022-10-29T16:59:17.904Z,95407.09
2022-10-29T17:03:21.265Z,95405.91
2022-10-29T17:05:22.850Z,95414.03
2022-10-29T17:07:27.390Z,95411.22
2022-10-29T17:09:30.749Z,95415.69
2022-10-29T17:11:32.545Z,95412.19
2022-10-29T17:13:34.520Z,95414.19
2022-10-29T17:15:39.261Z,95415.19
2022-10-29T17:17:43.842Z,95417.03
2022-10-29T17:19:47.840Z,95417.19
2022-10-29T17:21:50.712Z,95412.06
2022-10-29T17:23:53.639Z,95417.19
2022-10-29T17:25:56.534Z,95420.84
2022-10-29T17:27:58.679Z,95414.72
2022-10-29T17:30:00.604Z,95423.19
2022-10-29T17:34:08.847Z,95422.38
2022-10-29T17:36:15.313Z,95430.47
2022-10-29T17:38:16.898Z,95426.38
2022-10-29T17:40:18.683Z,95433.81
2022-10-29T17:42:20.563Z,95434.81
2022-10-29T17:44:22.203Z,95426.25
2022-10-29T17:46:23.995Z,95426.78
2022-10-29T17:48:25.567Z,95429.75
2022-10-29T17:50:27.206Z,95436.56
2022-10-29T17:52:29.014Z,95434.91
2022-10-29T17:54:30.608Z,95421.91
2022-10-29T17:56:32.436Z,95427.69
2022-10-29T17:58:34.095Z,95426.88
2022-10-29T18:00:35.641Z,95427.88
2022-10-29T18:02:37.345Z,95431.50
2022-10-29T18:04:39.068Z,95434.13
2022-10-29T18:06:40.678Z,95436.94
2022-10-29T18:08:43.068Z,95437.13
2022-10-29T18:10:44.664Z,95442.44
2022-10-29T18:12:46.401Z,95439.94
2022-10-29T18:14:47.949Z,95448.03
2022-10-29T18:16:49.500Z,95458.16
2022-10-29T18:19:01.414Z,95459.66
2022-10-29T18:21:05.114Z,95451.06
2022-10-29T18:23:06.697Z,95455.53
2022-10-29T18:25:10.021Z,95456.53
2022-10-29T18:27:11.597Z,95454.72
2022-10-29T18:29:13.405Z,95462.81
2022-10-29T18:31:15.067Z,95458.69
2022-10-29T18:33:16.643Z,95458.84
2022-10-29T18:35:18.574Z,95456.38
2022-10-29T18:37:20.132Z,95463.19
2022-10-29T18:39:21.720Z,95460.53
2022-10-29T18:41:23.935Z,95465.00
2022-10-29T18:43:27.060Z,95456.59
2022-10-29T18:45:28.682Z,95461.06
2022-10-29T18:47:30.301Z,95460.22
2022-10-29T18:49:31.933Z,95456.28
2022-10-29T18:51:33.541Z,95460.28
2022-10-29T18:53:36.450Z,95459.63
2022-10-29T18:55:38.096Z,95451.19
2022-10-29T18:57:39.652Z,95448.72
2022-10-29T18:59:41.376Z,95453.34
2022-10-29T19:01:42.982Z,95449.06
2022-10-29T19:03:49.497Z,95438.84
2022-10-29T19:05:51.352Z,95441.47
2022-10-29T19:07:52.928Z,95446.44
2022-10-29T19:09:54.545Z,95441.16
2022-10-29T19:11:58.531Z,95443.13
2022-10-29T19:14:03.588Z,95446.75
2022-10-29T19:16:12.659Z,95438.19
2022-10-29T19:18:14.245Z,95440.19
2022-10-29T19:20:15.915Z,95436.56
2022-10-29T19:22:18.077Z,95438.53
2022-10-29T19:24:19.876Z,95431.28
2022-10-29T19:26:22.346Z,95441.84
2022-10-29T19:28:24.086Z,95444.47
2022-10-29T19:30:25.695Z,95438.56
2022-10-29T19:32:27.646Z,95444.00
2022-10-29T19:34:29.360Z,95443.84
2022-10-29T19:36:31.126Z,95444.53
2022-10-29T19:38:33.150Z,95449.47
2022-10-29T19:40:53.550Z,95448.47
2022-10-29T19:42:55.799Z,95458.00
2022-10-29T19:44:57.427Z,95449.75
2022-10-29T19:46:59.010Z,95449.44
2022-10-29T19:49:01.355Z,95456.72
2022-10-29T19:51:03.187Z,95452.59
2022-10-29T19:53:05.500Z,95454.41
2022-10-29T19:55:07.751Z,95458.53
2022-10-29T19:57:09.560Z,95450.97
2022-10-29T19:59:11.131Z,95459.69
2022-10-29T20:01:18.033Z,95456.88
2022-10-29T20:03:21.279Z,95460.53
2022-10-29T20:05:22.985Z,95458.69
2022-10-29T20:07:24.663Z,95466.59
2022-10-29T20:09:26.284Z,95468.13
2022-10-29T20:11:27.912Z,95464.50
2022-10-29T20:13:29.559Z,95463.34
2022-10-29T20:15:31.494Z,95468.28
2022-10-29T20:17:33.125Z,95470.25
2022-10-29T20:19:34.655Z,95470.25
2022-10-29T20:21:36.229Z,95466.75
2022-10-29T20:23:38.092Z,95465.94
2022-10-29T20:25:39.632Z,95464.97
2022-10-29T20:27:41.205Z,95468.28
2022-10-29T20:29:42.838Z,95466.47
2022-10-29T20:31:44.439Z,95474.53
2022-10-29T20:33:59.046Z,95475.53
2022-10-29T20:36:00.788Z,95471.22
2022-10-29T20:38:02.390Z,95474.88
2022-10-29T20:40:04.699Z,95470.56
2022-10-29T20:42:06.556Z,95476.66
2022-10-29T20:44:08.444Z,95474.19
2022-10-29T20:46:10.138Z,95471.88
2022-10-29T20:48:11.762Z,95473.19
2022-10-29T20:50:13.581Z,95470.19
2022-10-29T20:52:15.176Z,95481.38
2022-10-29T20:54:16.785Z,95472.63
2022-10-29T20:56:23.185Z,95468.22
2022-10-29T20:58:24.846Z,95483.50
2022-10-29T21:00:26.512Z,95474.94
2022-10-29T21:02:28.205Z,95482.84
2022-10-29T21:04:29.934Z,95482.34
2022-10-29T21:06:31.650Z,95481.53
2022-10-29T21:08:33.713Z,95475.44
2022-10-29T21:10:35.413Z,95474.59
2022-10-29T21:12:37.053Z,95473.47
2022-10-29T21:14:38.664Z,95469.03
2022-10-29T21:16:40.320Z,95465.88
2022-10-29T21:18:43.896Z,95468.53
2022-10-29T21:20:45.470Z,95470.34
2022-10-29T21:22:47.065Z,95471.97
2022-10-29T21:24:48.899Z,95470.47
2022-10-29T21:26:50.505Z,95474.69
2022-10-29T21:28:53.521Z,95465.00
2022-10-29T21:30:55.138Z,95468.47
2022-10-29T21:32:56.755Z,95466.97
2022-10-29T21:34:58.411Z,95455.78
2022-10-29T21:37:00.218Z,95456.75
2022-10-29T21:39:01.759Z,95458.22
2022-10-29T21:41:03.450Z,95454.78
2022-10-29T21:43:05.067Z,95448.84
2022-10-29T21:45:07.294Z,95448.03
2022-10-29T21:47:08.971Z,95450.50
2022-10-29T21:49:10.613Z,95451.34
2022-10-29T21:51:13.809Z,95453.16
2022-10-29T21:55:22.128Z,95452.59
2022-10-29T21:57:23.723Z,95454.06
2022-10-29T21:59:25.330Z,95459.41
2022-10-29T22:01:27.058Z,95461.69
2022-10-29T22:03:31.532Z,95457.03
2022-10-29T22:05:33.131Z,95451.91
2022-10-29T22:07:35.039Z,95447.47
2022-10-29T22:09:36.748Z,95459.94
2022-10-29T22:11:38.352Z,95457.81
2022-10-29T22:13:40.062Z,95447.09
2022-10-29T22:15:44.979Z,95447.75
2022-10-29T22:17:46.591Z,95450.94
2022-10-29T22:19:48.157Z,95446.94
2022-10-29T22:21:50.175Z,95440.75
2022-10-29T22:23:53.681Z,95450.66
2022-10-29T22:25:55.267Z,95446.22
2022-10-29T22:27:57.203Z,95442.16
2022-10-29T22:29:58.921Z,95439.56
2022-10-29T22:32:00.568Z,95443.22
2022-10-29T22:34:02.146Z,95434.03
2022-10-29T22:36:10.089Z,95435.38
2022-10-29T22:38:11.765Z,95440.19
2022-10-29T22:40:13.539Z,95438.88
2022-10-29T22:42:16.133Z,95438.34
2022-10-29T22:44:18.202Z,95439.03
2022-10-29T22:46:21.096Z,95441.00
2022-10-29T22:48:22.695Z,95440.31
2022-10-29T22:50:24.391Z,95444.81
2022-10-29T22:52:26.077Z,95437.84
2022-10-29T22:54:27.714Z,95442.28
2022-10-29T22:56:31.946Z,95446.25
2022-10-29T22:58:33.734Z,95443.97
2022-10-29T23:00:35.329Z,95446.31
2022-10-29T23:02:37.064Z,95442.69
2022-10-29T23:04:38.719Z,95446.31
2022-10-29T23:06:40.494Z,95448.78
2022-10-29T23:08:44.197Z,95442.88
2022-10-29T23:10:46.238Z,95441.53
2022-10-29T23:12:47.813Z,95440.84
2022-10-29T23:14:49.589Z,95440.84
2022-10-29T23:16:51.267Z,95447.28
2022-10-29T23:18:55.396Z,95445.50
2022-10-29T23:21:05.558Z,95443.00
2022-10-29T23:23:07.242Z,95448.06
2022-10-29T23:25:09.159Z,95448.06
2022-10-29T23:27:10.791Z,95446.13
2022-10-29T23:29:12.364Z,95437.84
2022-10-29T23:31:15.728Z,95443.13
2022-10-29T23:33:17.335Z,95443.13
2022-10-29T23:35:18.931Z,95446.34
2022-10-29T23:37:20.573Z,95444.66
2022-10-29T23:39:22.175Z,95439.22
2022-10-29T23:41:24.564Z,95428.16
2022-10-29T23:43:26.889Z,95429.31
2022-10-29T23:45:28.497Z,95425.66
2022-10-29T23:47:30.078Z,95425.75
2022-10-29T23:49:31.777Z,95429.22
2022-10-29T23:53:39.894Z,95418.03
2022-10-29T23:55:45.505Z,95420.34
2022-10-29T23:57:47.074Z,95413.94
2022-10-29T23:59:48.631Z,95415.59
